Time;durP1;ratioP1;P1;durP2;ratioP2;P2;SDS_P1;SDS_P2;PMS_P1;PMS_P2;Temp;Humidity;BMP_temperature;BMP_pressure;BME280_temperature;BME280_humidity;BME280_pressure;Samples;Min_cycle;Max_cycle;Signal;HPM_P1;HPM_P2
2023/03/16 00:01:25;;;;;;;18.20;8.40;;;;;;;5.41;50.38;99184.58;223499;182;138829;-68
2023/03/16 00:06:29;;;;;;;21.20;7.60;;;;;;;5.40;50.47;99185.88;223571;182;137190;-68
2023/03/16 00:11:32;;;;;;;19.80;7.70;;;;;;;5.35;50.65;99186.24;223646;182;147099;-68
2023/03/16 00:16:36;;;;;;;15.60;6.90;;;;;;;5.31;50.83;99193.63;223632;183;139062;-68
2023/03/16 00:21:39;;;;;;;17.90;7.60;;;;;;;5.30;50.90;99193.66;223641;183;137243;-68
2023/03/16 00:26:44;;;;;;;15.60;6.40;;;;;;;5.22;51.03;99202.42;223504;182;147763;-67
2023/03/16 00:31:48;;;;;;;18.50;6.70;;;;;;;5.13;51.36;99208.70;223570;182;138124;-67
2023/03/16 00:36:51;;;;;;;16.20;7.10;;;;;;;5.06;51.49;99212.31;223612;182;136558;-68
2023/03/16 00:41:57;;;;;;;17.10;7.50;;;;;;;5.07;51.63;99214.75;223626;183;148268;-67
2023/03/16 00:47:00;;;;;;;15.00;7.20;;;;;;;5.00;51.67;99215.34;223510;183;138295;-66
2023/03/16 00:52:06;;;;;;;17.20;7.10;;;;;;;4.96;51.87;99215.30;223616;183;137381;-66
2023/03/16 00:57:12;;;;;;;15.70;7.50;;;;;;;4.92;51.96;99221.06;223647;183;147065;-66
2023/03/16 01:02:18;;;;;;;16.80;7.00;;;;;;;4.86;52.19;99223.77;223554;182;138932;-66
2023/03/16 01:07:23;;;;;;;15.20;6.80;;;;;;;4.78;52.51;99226.33;223704;182;138695;-65
2023/03/16 01:12:27;;;;;;;15.40;6.60;;;;;;;4.62;52.95;99225.85;223566;183;148054;-66
2023/03/16 01:17:33;;;;;;;17.00;7.40;;;;;;;4.53;53.43;99232.49;223648;182;138349;-68
2023/03/16 01:22:37;;;;;;;12.10;6.60;;;;;;;4.48;53.76;99235.29;223626;182;136713;-68
2023/03/16 01:27:41;;;;;;;13.00;6.10;;;;;;;4.45;53.90;99240.84;223701;182;148345;-68
2023/03/16 01:32:45;;;;;;;16.70;6.70;;;;;;;4.39;54.29;99241.37;223563;182;138244;-68
2023/03/16 01:37:48;;;;;;;15.20;6.80;;;;;;;4.39;54.44;99243.00;223662;183;136888;-67
2023/03/16 01:43:03;;;;;;;13.50;7.00;;;;;;;4.34;54.53;99247.53;223579;183;147822;-67
2023/03/16 01:48:14;;;;;;;13.20;7.10;;;;;;;4.30;54.74;99252.56;223573;183;139542;-67
2023/03/16 01:53:20;;;;;;;16.30;7.30;;;;;;;4.30;54.84;99257.67;223624;182;136914;-68
2023/03/16 01:58:23;;;;;;;;;;;;;;;4.27;54.99;99256.16;223573;183;148035;-67
2023/03/16 02:03:27;;;;;;;15.30;6.80;;;;;;;4.18;55.25;99262.61;223747;183;138670;-69
2023/03/16 02:08:35;;;;;;;13.50;6.40;;;;;;;4.13;55.36;99262.06;223677;183;136501;-67
2023/03/16 02:13:39;;;;;;;14.70;6.00;;;;;;;4.08;55.55;99268.39;223653;183;147963;-69
2023/03/16 02:18:42;;;;;;;11.90;6.20;;;;;;;4.06;55.59;99275.13;223562;183;140543;-66
2023/03/16 02:23:49;;;;;;;16.10;6.30;;;;;;;4.02;55.88;99278.60;223627;182;137179;-70
2023/03/16 02:29:12;;;;;;;13.60;6.20;;;;;;;3.98;55.95;99283.80;223720;182;147456;-66
2023/03/16 02:34:17;;;;;;;15.60;6.30;;;;;;;3.96;56.12;99289.66;223696;182;139929;-69
2023/03/16 02:39:20;;;;;;;12.60;6.10;;;;;;;3.97;56.06;99296.48;223007;183;137035;-67
2023/03/16 02:44:32;;;;;;;16.60;6.40;;;;;;;3.92;56.19;99296.63;223658;183;147156;-67
2023/03/16 02:49:41;;;;;;;18.60;7.00;;;;;;;3.88;56.23;99307.09;223678;182;139898;-68
2023/03/16 02:54:44;;;;;;;18.20;8.00;;;;;;;3.87;56.17;99313.97;223704;183;136776;-67
2023/03/16 02:59:48;;;;;;;19.50;9.00;;;;;;;3.86;56.10;99319.80;223597;182;147146;-68
2023/03/16 03:04:53;;;;;;;20.60;9.50;;;;;;;3.85;56.07;99328.09;223532;183;138485;-68
2023/03/16 03:09:59;;;;;;;23.00;12.10;;;;;;;3.78;56.04;99334.24;223613;182;137145;-68
2023/03/16 03:15:04;;;;;;;29.90;11.80;;;;;;;3.75;56.27;99338.38;223749;182;147803;-69
2023/03/16 03:20:17;;;;;;;26.20;12.90;;;;;;;3.69;56.27;99344.73;223511;182;139385;-68
2023/03/16 03:25:21;;;;;;;28.40;13.00;;;;;;;3.60;56.23;99354.63;223606;183;137539;-67
2023/03/16 03:30:27;;;;;;;29.20;13.50;;;;;;;3.48;56.77;99364.61;223642;182;149882;-68
2023/03/16 03:35:32;;;;;;;31.70;13.40;;;;;;;3.40;57.05;99370.95;223619;183;141005;-67
2023/03/16 03:40:36;;;;;;;34.80;13.60;;;;;;;3.38;57.04;99373.98;223870;182;136998;-68
2023/03/16 03:45:39;;;;;;;23.50;12.20;;;;;;;3.37;57.29;99379.46;223677;182;147984;-67
2023/03/16 03:50:45;;;;;;;24.90;12.50;;;;;;;3.35;57.26;99384.27;223534;182;139194;-67
2023/03/16 03:56:11;;;;;;;42.60;26.10;;;;;;;3.33;58.23;99386.05;223613;182;137588;-66
2023/03/16 04:01:15;;;;;;;92.90;54.60;;;;;;;3.29;57.82;99387.92;223771;182;147042;-66
2023/03/16 04:06:18;;;;;;;32.20;14.60;;;;;;;3.27;58.05;99395.70;223585;183;139600;-67
2023/03/16 04:11:21;;;;;;;26.10;13.20;;;;;;;3.26;57.87;99401.66;223779;182;137063;-65
2023/03/16 04:16:26;;;;;;;28.80;14.10;;;;;;;3.27;57.95;99402.01;223695;183;148479;-68
2023/03/16 04:21:31;;;;;;;31.60;15.00;;;;;;;3.31;57.77;99400.50;223738;182;138871;-66
2023/03/16 04:26:34;;;;;;;27.60;13.20;;;;;;;3.31;58.16;99402.61;223639;182;136583;-67
2023/03/16 04:31:41;;;;;;;27.10;14.40;;;;;;;3.22;57.97;99413.02;223740;182;147607;-66
2023/03/16 04:36:45;;;;;;;26.70;13.80;;;;;;;3.13;58.12;99417.78;223650;183;139411;-66
2023/03/16 04:41:49;;;;;;;33.00;14.80;;;;;;;3.05;58.23;99425.17;223679;183;137184;-69
2023/03/16 04:46:56;;;;;;;28.80;13.80;;;;;;;3.00;58.37;99428.10;223439;182;147198;-66
2023/03/16 04:52:00;;;;;;;28.00;13.40;;;;;;;2.94;58.34;99434.57;223676;180;139253;-66
2023/03/16 04:57:04;;;;;;;26.80;13.20;;;;;;;2.84;58.67;99437.27;223641;182;137530;-75
2023/03/16 05:02:13;;;;;;;49.90;27.80;;;;;;;2.75;59.17;99440.11;223596;183;147840;-73
2023/03/16 05:07:17;;;;;;;33.50;15.10;;;;;;;2.75;59.40;99446.09;223031;182;138926;-71
2023/03/16 05:12:24;;;;;;;35.10;15.90;;;;;;;2.72;59.15;99446.86;223713;182;137443;-73
2023/03/16 05:17:31;;;;;;;35.50;15.00;;;;;;;2.64;59.31;99451.05;223658;183;147410;-72
2023/03/16 05:22:34;;;;;;;27.20;13.50;;;;;;;2.53;59.49;99456.92;223643;182;139308;-71
2023/03/16 05:27:52;;;;;;;31.20;14.90;;;;;;;2.45;59.71;99462.54;223608;182;137506;-71
2023/03/16 05:33:37;;;;;;;33.30;14.40;;;;;;;2.43;59.99;99466.77;222840;182;1158691;-71
2023/03/16 05:38:45;;;;;;;32.20;15.80;;;;;;;2.42;60.19;99465.04;223610;182;138576;-71
2023/03/16 05:43:54;;;;;;;30.90;14.70;;;;;;;2.46;60.08;99467.59;223599;183;136696;-71
2023/03/16 05:49:00;;;;;;;29.40;15.30;;;;;;;2.47;60.20;99476.84;223569;182;147289;-71
2023/03/16 05:54:05;;;;;;;33.20;16.00;;;;;;;2.49;60.44;99481.70;223588;182;138418;-71
2023/03/16 05:59:16;;;;;;;30.10;15.00;;;;;;;2.53;60.37;99484.76;223522;182;136691;-70
2023/03/16 06:04:24;;;;;;;31.90;15.30;;;;;;;2.58;60.40;99489.04;223615;182;147631;-70
2023/03/16 06:09:28;;;;;;;32.50;17.00;;;;;;;2.67;60.25;99489.36;223460;182;139473;-72
2023/03/16 06:14:32;;;;;;;29.70;15.40;;;;;;;2.71;60.34;99488.58;223685;182;137551;-71
2023/03/16 06:19:35;;;;;;;31.50;16.10;;;;;;;2.81;60.16;99492.52;223664;182;148424;-71
2023/03/16 06:24:39;;;;;;;28.40;15.60;;;;;;;2.90;60.04;99500.38;223621;183;139732;-71
2023/03/16 06:29:42;;;;;;;33.10;17.00;;;;;;;2.97;60.04;99506.17;223663;183;137497;-71
2023/03/16 06:34:47;;;;;;;30.10;15.20;;;;;;;3.12;59.56;99510.02;223654;183;146703;-73
2023/03/16 06:39:51;;;;;;;27.60;16.10;;;;;;;3.17;59.55;99515.17;223660;183;140747;-73
2023/03/16 06:44:54;;;;;;;32.30;16.20;;;;;;;3.26;59.36;99513.01;223642;182;137199;-71
2023/03/16 06:49:58;;;;;;;35.90;16.70;;;;;;;3.36;59.16;99523.80;223737;182;147143;-71
2023/03/16 06:55:02;;;;;;;31.20;16.60;;;;;;;3.45;59.21;99530.09;223594;183;139331;-71
2023/03/16 07:00:08;;;;;;;38.40;16.60;;;;;;;3.58;58.92;99532.55;223639;182;137995;-71
2023/03/16 07:05:12;;;;;;;35.30;17.80;;;;;;;3.74;58.90;99537.06;223582;183;147668;-72
2023/03/16 07:10:18;;;;;;;;;;;;;;;3.85;58.84;99539.39;223611;182;138839;-72
2023/03/16 07:15:25;;;;;;;25.90;15.70;;;;;;;3.90;58.81;99541.71;223577;182;130886;-71
2023/03/16 07:20:31;;;;;;;31.80;16.10;;;;;;;4.08;58.49;99547.35;223577;183;147235;-72
2023/03/16 07:25:38;;;;;;;26.90;14.70;;;;;;;4.21;57.97;99551.21;223565;183;139144;-72
2023/03/16 07:30:43;;;;;;;28.30;14.90;;;;;;;4.36;57.90;99547.29;223654;183;137451;-72
2023/03/16 07:36:09;;;;;;;;;;;;;;;4.55;57.34;99550.61;223338;183;147129;-72
2023/03/16 07:41:17;;;;;;;32.70;13.60;;;;;;;4.66;57.10;99551.85;223657;182;138928;-72
2023/03/16 07:46:21;;;;;;;24.40;12.70;;;;;;;4.85;56.50;99553.05;223564;182;138161;-72
2023/03/16 07:51:24;;;;;;;27.90;12.50;;;;;;;4.99;56.01;99553.66;223578;182;147016;-72
2023/03/16 07:56:28;;;;;;;22.30;10.10;;;;;;;5.16;55.52;99560.00;223622;182;141696;-72
2023/03/16 08:01:54;;;;;;;21.00;10.70;;;;;;;5.24;54.55;99552.36;223683;183;137271;-72
2023/03/16 08:07:00;;;;;;;19.90;9.30;;;;;;;5.42;54.39;99552.48;223504;183;147686;-73
2023/03/16 08:12:17;;;;;;;23.20;10.40;;;;;;;5.58;53.81;99552.29;223643;183;139482;-72
2023/03/16 08:17:21;;;;;;;30.20;10.70;;;;;;;5.67;53.31;99556.05;223752;182;136582;-72
2023/03/16 08:22:25;;;;;;;29.30;9.80;;;;;;;5.61;53.53;99555.19;223555;182;148548;-72
2023/03/16 08:27:29;;;;;;;19.50;9.60;;;;;;;5.78;52.91;99557.25;223671;183;139778;-72
2023/03/16 08:32:36;;;;;;;20.30;9.40;;;;;;;5.92;52.67;99563.48;223691;183;136859;-71
2023/03/16 08:37:40;;;;;;;20.90;9.50;;;;;;;6.14;52.22;99567.84;223543;183;147632;-72
2023/03/16 08:42:45;;;;;;;16.60;8.70;;;;;;;6.33;52.13;99568.73;223562;183;138312;-71
2023/03/16 08:47:50;;;;;;;17.60;8.30;;;;;;;6.50;51.53;99570.75;223705;183;137332;-72
2023/03/16 08:52:53;;;;;;;17.20;6.50;;;;;;;6.69;50.97;99566.70;223723;183;147104;-72
2023/03/16 08:57:57;;;;;;;11.20;5.80;;;;;;;6.75;48.34;99564.73;223625;183;138507;-72
2023/03/16 09:03:01;;;;;;;12.40;5.10;;;;;;;6.75;48.83;99566.67;223731;182;137655;-72
2023/03/16 09:08:05;;;;;;;12.20;5.40;;;;;;;6.77;48.24;99566.94;223658;183;147346;-72
2023/03/16 09:13:09;;;;;;;12.30;4.60;;;;;;;6.92;47.43;99572.18;223639;182;138979;-72
2023/03/16 09:18:12;;;;;;;10.90;5.30;;;;;;;6.90;47.49;99574.92;223693;182;137036;-72
2023/03/16 09:23:17;;;;;;;16.30;5.60;;;;;;;6.96;47.46;99573.42;223726;182;147215;-72
2023/03/16 09:28:21;;;;;;;14.50;5.20;;;;;;;6.98;48.01;99577.77;223645;182;139671;-71
2023/03/16 09:33:30;;;;;;;13.40;5.70;;;;;;;7.05;47.56;99575.39;223725;182;137648;-71
2023/03/16 09:38:35;;;;;;;14.00;5.40;;;;;;;7.34;46.98;99576.54;223699;182;147475;-72
2023/03/16 09:43:48;;;;;;;13.60;4.80;;;;;;;7.54;46.37;99575.70;223586;182;138817;-72
2023/03/16 09:48:54;;;;;;;9.20;3.40;;;;;;;7.86;44.58;99569.06;223583;183;136590;-72
2023/03/16 09:54:01;;;;;;;7.60;3.10;;;;;;;7.93;43.67;99575.34;223744;182;148449;-70
2023/03/16 09:59:12;;;;;;;9.80;4.60;;;;;;;7.82;43.41;99579.33;222083;182;139652;-73
2023/03/16 10:04:24;;;;;;;9.60;4.50;;;;;;;7.64;43.99;99585.20;223625;182;137083;-73
2023/03/16 10:09:33;;;;;;;9.60;3.60;;;;;;;7.48;43.50;99589.02;223728;182;149670;-73
2023/03/16 10:14:43;;;;;;;8.60;3.20;;;;;;;7.69;42.55;99586.77;223652;183;139256;-74
2023/03/16 10:19:58;;;;;;;7.40;3.30;;;;;;;8.14;42.01;99582.52;223091;183;136694;-72
2023/03/16 10:25:30;;;;;;;12.00;3.80;;;;;;;8.31;40.93;99580.74;223670;182;148324;-73
2023/03/16 10:30:36;;;;;;;6.00;2.80;;;;;;;8.24;40.64;99588.64;223697;182;139156;-74
2023/03/16 10:36:05;;;;;;;11.20;3.00;;;;;;;8.42;39.53;99583.10;223618;183;136770;-74
2023/03/16 10:41:22;;;;;;;8.30;2.80;;;;;;;8.64;38.09;99590.46;223577;183;148003;-73
2023/03/16 10:46:27;;;;;;;8.00;2.50;;;;;;;8.40;38.56;99588.36;223630;183;138581;-73
2023/03/16 10:51:36;;;;;;;5.30;2.40;;;;;;;8.69;38.53;99587.57;223724;182;137201;-74
2023/03/16 10:56:40;;;;;;;7.00;3.40;;;;;;;9.18;37.94;99590.77;223661;183;147460;-71
2023/03/16 11:01:48;;;;;;;8.00;2.50;;;;;;;9.39;37.56;99584.07;223416;183;138367;-71
2023/03/16 11:06:55;;;;;;;85.30;51.00;;;;;;;9.23;36.19;99581.34;223487;183;137781;-71
2023/03/16 11:12:14;;;;;;;10.30;4.00;;;;;;;9.11;37.10;99580.64;223584;182;147941;-72
2023/03/16 11:17:33;;;;;;;10.40;3.10;;;;;;;8.96;37.02;99586.33;223594;182;139838;-72
2023/03/16 11:22:39;;;;;;;8.00;3.40;;;;;;;9.00;37.42;99578.50;223581;182;136541;-71
2023/03/16 11:27:47;;;;;;;;;;;;;;;8.90;36.61;99584.14;223676;183;146884;-71
2023/03/16 11:32:53;;;;;;;10.20;4.40;;;;;;;8.71;36.64;99587.48;223766;183;140032;-72
2023/03/16 11:38:02;;;;;;;11.60;5.20;;;;;;;8.48;37.72;99586.37;223641;182;138032;-72
2023/03/16 11:43:17;;;;;;;17.10;5.80;;;;;;;8.15;38.71;99594.34;223659;182;147022;-72
2023/03/16 11:48:35;;;;;;;14.50;6.20;;;;;;;8.16;38.80;99591.27;223456;182;139226;-71
2023/03/16 11:54:19;;;;;;;11.10;5.60;;;;;;;8.57;38.28;99579.64;222013;182;136802;-71
2023/03/16 11:59:38;;;;;;;11.30;5.30;;;;;;;8.92;37.93;99576.23;223696;182;147146;-72
2023/03/16 12:04:55;;;;;;;9.80;5.20;;;;;;;8.86;37.91;99576.33;223666;183;137525;-72
2023/03/16 12:10:12;;;;;;;9.50;4.50;;;;;;;8.83;37.47;99581.96;223704;182;136294;-72
2023/03/16 12:15:34;;;;;;;10.10;4.00;;;;;;;8.79;36.48;99585.18;223661;182;148516;-72
2023/03/16 12:21:01;;;;;;;9.70;4.20;;;;;;;8.60;37.02;99581.42;223565;182;139642;-71
2023/03/16 12:26:05;;;;;;;9.10;3.90;;;;;;;8.44;37.70;99594.17;223673;182;136925;-72
2023/03/16 12:31:34;;;;;;;9.90;4.70;;;;;;;8.34;38.37;99596.87;223636;183;148260;-71
2023/03/16 12:36:51;;;;;;;7.90;3.80;;;;;;;8.41;38.96;99589.16;223689;182;138854;-72
2023/03/16 12:42:13;;;;;;;8.60;4.40;;;;;;;8.84;39.19;99588.66;223657;182;136839;-72
2023/03/16 12:47:32;;;;;;;6.10;3.40;;;;;;;9.22;37.58;99579.59;223561;183;149229;-71
2023/03/16 12:52:45;;;;;;;10.20;3.70;;;;;;;9.26;36.95;99576.21;223581;182;138878;-71
2023/03/16 12:57:57;;;;;;;8.10;3.20;;;;;;;9.14;37.03;99574.47;223502;185;137159;-71
2023/03/16 13:03:03;;;;;;;9.10;3.30;;;;;;;9.40;38.11;99572.52;223658;183;150052;-71
2023/03/16 13:08:12;;;;;;;6.80;3.60;;;;;;;9.84;36.24;99567.20;223569;182;139568;-71
2023/03/16 13:13:17;;;;;;;8.20;2.40;;;;;;;10.32;35.28;99566.86;223613;183;137123;-71
2023/03/16 13:18:23;;;;;;;7.80;2.40;;;;;;;10.82;34.00;99567.20;223584;183;148382;-73
2023/03/16 13:23:45;;;;;;;8.30;3.20;;;;;;;11.06;33.76;99569.26;223554;183;138620;-71
2023/03/16 13:28:53;;;;;;;6.60;2.70;;;;;;;11.57;34.45;99567.09;223588;182;137497;-71
2023/03/16 13:33:59;;;;;;;5.80;3.10;;;;;;;12.01;33.36;99565.77;223500;183;158958;-74
2023/03/16 13:39:13;;;;;;;9.80;3.60;;;;;;;12.14;32.78;99560.77;223448;193;139338;-74
2023/03/16 13:44:17;;;;;;;8.40;3.80;;;;;;;11.92;32.59;99566.52;223405;186;138071;-74
2023/03/16 13:49:21;;;;;;;8.50;3.00;;;;;;;11.61;32.45;99566.10;223563;182;148389;-73
2023/03/16 13:54:28;;;;;;;8.30;2.90;;;;;;;11.24;32.81;99568.04;223558;182;139607;-74
2023/03/16 13:59:32;;;;;;;6.70;2.80;;;;;;;10.76;32.89;99574.27;223648;182;137085;-71
2023/03/16 14:04:36;;;;;;;4.60;2.80;;;;;;;10.24;33.55;99573.45;223550;182;148415;-72
2023/03/16 14:09:39;;;;;;;7.10;2.70;;;;;;;10.05;34.93;99576.89;223606;182;138687;-72
2023/03/16 14:14:53;;;;;;;6.30;2.90;;;;;;;9.90;34.63;99581.94;223578;183;137336;-71
2023/03/16 14:19:59;;;;;;;6.40;2.90;;;;;;;9.82;34.20;99581.81;223585;183;148490;-71
2023/03/16 14:25:04;;;;;;;5.70;2.80;;;;;;;9.71;34.90;99580.23;223543;183;138895;-71
2023/03/16 14:30:17;;;;;;;8.40;3.50;;;;;;;9.60;34.98;99584.86;223444;183;136801;-71
2023/03/16 14:35:21;;;;;;;8.00;2.70;;;;;;;9.49;35.03;99589.65;223610;182;147843;-73
2023/03/16 14:40:24;;;;;;;5.10;2.50;;;;;;;9.45;35.03;99596.36;223598;183;138638;-72
2023/03/16 14:45:36;;;;;;;5.10;2.30;;;;;;;9.40;34.86;99598.39;223563;182;136840;-72
2023/03/16 14:50:40;;;;;;;6.70;2.60;;;;;;;9.32;34.96;99596.32;223565;183;148819;-73
2023/03/16 14:55:43;;;;;;;6.40;2.70;;;;;;;9.31;35.18;99600.11;223615;183;139439;-72
2023/03/16 15:00:52;;;;;;;5.50;2.30;;;;;;;9.25;34.85;99603.52;223585;183;140063;-72
2023/03/16 15:05:56;;;;;;;7.90;2.90;;;;;;;9.14;34.82;99600.88;223709;182;147074;-72
2023/03/16 15:11:04;;;;;;;6.50;2.80;;;;;;;9.07;35.19;99599.08;223506;183;139136;-71
2023/03/16 15:16:10;;;;;;;20.20;12.00;;;;;;;9.10;35.59;99606.34;223513;182;137473;-73
2023/03/16 15:21:19;;;;;;;9.00;3.10;;;;;;;9.10;35.51;99606.76;223522;183;147283;-72
2023/03/16 15:26:28;;;;;;;9.10;3.10;;;;;;;9.06;35.28;99607.10;223592;183;138241;-74
2023/03/16 15:31:32;;;;;;;6.30;2.40;;;;;;;9.03;35.10;99605.64;223536;183;137386;-72
2023/03/16 15:36:36;;;;;;;5.80;2.70;;;;;;;8.97;35.06;99607.15;223658;183;147463;-73
2023/03/16 15:41:42;;;;;;;7.30;2.40;;;;;;;8.88;35.20;99603.70;223521;183;138538;-74
2023/03/16 15:46:52;;;;;;;7.60;3.40;;;;;;;8.81;35.20;99605.77;223546;183;258779;-72
2023/03/16 15:51:56;;;;;;;;;;;;;;;8.74;35.39;99607.46;223675;183;147373;-72
2023/03/16 15:57:00;;;;;;;7.70;2.30;;;;;;;8.77;35.19;99608.79;223557;182;139478;-70
2023/03/16 16:02:23;;;;;;;7.80;2.20;;;;;;;8.81;34.98;99606.14;223628;182;137138;-72
2023/03/16 16:07:26;;;;;;;4.50;2.10;;;;;;;8.85;34.64;99609.50;223513;182;146912;-71
2023/03/16 16:12:31;;;;;;;175.60;118.30;;;;;;;8.89;36.32;99617.09;223497;183;139716;-71
2023/03/16 16:17:34;;;;;;;12.60;6.30;;;;;;;9.02;35.56;99621.45;223309;183;137435;-71
2023/03/16 16:29:25;;;;;;;6.30;3.00;;;;;;;8.87;35.45;99628.50;223793;183;138694;-71
2023/03/16 16:34:28;;;;;;;9.90;3.40;;;;;;;8.84;36.97;99635.36;223367;182;137273;-71
2023/03/16 16:39:32;;;;;;;9.30;3.30;;;;;;;8.78;37.31;99643.41;223485;184;147375;-71
2023/03/16 16:44:36;;;;;;;10.60;3.50;;;;;;;8.72;37.33;99646.54;223402;183;139181;-71
2023/03/16 16:49:40;;;;;;;8.30;3.80;;;;;;;8.73;37.44;99652.14;223376;182;137068;-71
2023/03/16 16:54:43;;;;;;;9.30;3.30;;;;;;;8.67;37.54;99661.58;223393;183;146960;-70
2023/03/16 16:59:47;;;;;;;11.10;4.00;;;;;;;8.64;37.30;99665.63;223356;183;137516;-71
2023/03/16 17:04:51;;;;;;;13.70;3.60;;;;;;;8.53;37.11;99664.33;223349;183;136991;-72
2023/03/16 17:09:55;;;;;;;13.50;5.50;;;;;;;8.46;37.46;99674.37;223503;193;149022;-74
2023/03/16 17:14:59;;;;;;;246.70;143.90;;;;;;;8.38;37.76;99683.89;223414;187;139280;-73
2023/03/16 17:20:13;;;;;;;29.20;14.30;;;;;;;8.39;38.56;99682.27;223323;183;137980;-71
2023/03/16 17:25:17;;;;;;;34.80;18.90;;;;;;;8.27;37.96;99682.73;223385;183;147608;-72
2023/03/16 17:30:23;;;;;;;33.90;16.80;;;;;;;8.18;38.22;99687.91;223302;216;139705;-71
2023/03/16 17:35:27;;;;;;;26.50;11.70;;;;;;;8.06;38.74;99690.86;223372;182;137874;-70
2023/03/16 17:40:32;;;;;;;19.80;9.30;;;;;;;7.98;38.91;99694.75;223347;182;148205;-71
2023/03/16 17:45:36;;;;;;;18.00;5.80;;;;;;;7.92;39.05;99695.52;223397;183;139865;-71
2023/03/16 17:50:40;;;;;;;15.20;6.00;;;;;;;7.93;38.52;99698.11;223302;193;136872;-70
2023/03/16 17:55:45;;;;;;;10.30;5.60;;;;;;;7.90;38.70;99698.96;223418;183;147253;-71
2023/03/16 18:00:53;;;;;;;14.50;6.10;;;;;;;7.83;38.73;99695.50;223379;182;138160;-72
2023/03/16 18:06:00;;;;;;;19.80;7.10;;;;;;;7.75;39.38;99704.83;223358;182;136910;-71
2023/03/16 18:11:11;;;;;;;19.90;7.00;;;;;;;7.63;39.60;99708.13;223349;205;149175;-73
2023/03/16 18:16:21;;;;;;;24.10;7.30;;;;;;;7.50;40.15;99707.93;223406;183;138460;-69
2023/03/16 18:21:25;;;;;;;24.20;7.00;;;;;;;7.37;40.64;99706.85;223541;205;136633;-70
2023/03/16 18:26:30;;;;;;;17.40;6.80;;;;;;;7.21;41.20;99711.33;223335;182;148185;-70
2023/03/16 18:31:34;;;;;;;24.40;7.70;;;;;;;7.06;41.38;99717.52;223371;191;138422;-69
2023/03/16 18:36:39;;;;;;;25.40;6.90;;;;;;;6.96;42.05;99723.57;223438;179;136800;-73
2023/03/16 18:41:51;;;;;;;18.80;7.30;;;;;;;6.83;42.43;99730.18;223407;183;148420;-72
2023/03/16 18:53:21;;;;;;;25.50;7.50;;;;;;;6.47;43.65;99736.20;223415;182;138015;-71
2023/03/16 18:58:24;;;;;;;23.60;7.50;;;;;;;6.36;43.91;99743.81;223362;182;146919;-71
2023/03/16 19:03:32;;;;;;;24.30;7.30;;;;;;;6.25;44.09;99746.82;223449;216;138826;-72
2023/03/16 19:08:35;;;;;;;19.60;8.00;;;;;;;6.13;44.13;99752.85;223475;182;138280;-71
2023/03/16 19:13:39;;;;;;;21.90;7.50;;;;;;;6.03;44.64;99757.22;223382;182;147586;-71
2023/03/16 19:23:55;;;;;;;64.10;31.90;;;;;;;5.79;46.45;99767.60;223314;186;137190;-71
2023/03/16 19:29:00;;;;;;;28.90;10.20;;;;;;;5.79;47.37;99766.58;223297;182;148164;-70
2023/03/16 19:34:16;;;;;;;29.00;9.50;;;;;;;5.78;47.00;99767.98;223400;182;139428;-70
2023/03/16 19:39:20;;;;;;;;;;;;;;;5.64;46.95;99777.24;223446;215;136812;-70
2023/03/16 19:44:27;;;;;;;25.20;9.40;;;;;;;5.47;47.32;99781.42;223413;182;148077;-72
2023/03/16 19:49:30;;;;;;;22.50;9.00;;;;;;;5.37;47.52;99785.23;223362;183;139452;-71
2023/03/16 19:54:34;;;;;;;25.30;9.80;;;;;;;5.27;48.11;99788.17;223366;182;137334;-71
2023/03/16 19:59:37;;;;;;;30.30;9.40;;;;;;;5.17;48.71;99792.50;223311;182;148536;-70
2023/03/16 20:04:41;;;;;;;35.40;12.90;;;;;;;5.07;48.79;99789.96;223310;182;138412;-71
2023/03/16 20:09:45;;;;;;;43.90;14.10;;;;;;;5.03;49.07;99796.93;223437;213;136831;-70
2023/03/16 20:14:50;;;;;;;44.20;15.60;;;;;;;4.96;49.41;99799.23;223384;198;147009;-70
2023/03/16 20:19:55;;;;;;;48.30;17.80;;;;;;;4.87;50.01;99798.74;223307;183;139423;-70
2023/03/16 20:25:00;;;;;;;49.50;19.00;;;;;;;4.81;50.56;99804.73;223356;182;137558;-71
2023/03/16 20:30:14;;;;;;;54.20;27.10;;;;;;;4.77;51.81;99809.39;223358;182;147673;-71
2023/03/16 20:35:22;;;;;;;51.80;20.70;;;;;;;4.84;51.85;99811.67;223387;213;138916;-71
2023/03/16 20:40:25;;;;;;;49.60;21.60;;;;;;;4.76;51.29;99806.95;223334;183;138027;-69
2023/03/16 20:45:29;;;;;;;46.20;22.10;;;;;;;4.60;51.74;99805.10;223134;183;147228;-72
2023/03/16 20:50:33;;;;;;;54.10;20.50;;;;;;;4.45;51.90;99810.21;223475;216;138393;-71
2023/03/16 20:55:36;;;;;;;45.30;19.50;;;;;;;4.37;51.79;99808.83;223524;183;136717;-68
2023/03/16 21:00:40;;;;;;;46.10;19.40;;;;;;;4.37;51.43;99809.35;223436;183;146903;-69
2023/03/16 21:05:46;;;;;;;42.00;19.40;;;;;;;4.39;51.67;99815.27;223372;182;138909;-70
2023/03/16 21:10:52;;;;;;;47.10;20.20;;;;;;;4.31;52.04;99821.63;223344;182;140133;-69
2023/03/16 21:15:59;;;;;;;60.70;24.20;;;;;;;4.27;52.03;99817.85;223468;216;147721;-72
2023/03/16 21:21:02;;;;;;;68.40;25.10;;;;;;;4.20;52.70;99819.42;223439;205;140130;-69
2023/03/16 21:26:06;;;;;;;66.70;28.70;;;;;;;4.09;53.18;99818.97;223437;197;140526;-70
2023/03/16 21:31:14;;;;;;;72.30;30.60;;;;;;;4.00;53.39;99821.98;223604;216;147882;-71
2023/03/16 21:36:25;;;;;;;70.40;32.20;;;;;;;3.93;53.57;99815.65;223340;183;139401;-72
2023/03/16 21:41:28;;;;;;;63.80;32.80;;;;;;;3.84;53.83;99814.80;223217;193;140075;-72
2023/03/16 21:46:32;;;;;;;73.40;33.80;;;;;;;3.77;54.05;99815.65;223317;184;148337;-69
2023/03/16 21:51:36;;;;;;;68.50;33.10;;;;;;;3.68;54.12;99818.48;223390;205;138166;-70
2023/03/16 21:56:41;;;;;;;73.00;32.70;;;;;;;3.60;54.18;99819.18;223437;183;136980;-69
2023/03/16 22:01:45;;;;;;;74.20;33.80;;;;;;;3.51;54.32;99820.07;223416;183;148655;-69
2023/03/16 22:07:09;;;;;;;80.70;34.10;;;;;;;3.44;54.34;99827.05;223321;193;140302;-69
2023/03/16 22:12:13;;;;;;;66.80;32.50;;;;;;;3.39;54.62;99828.55;223312;216;140876;-69
2023/03/16 22:17:21;;;;;;;75.60;33.90;;;;;;;3.35;55.05;99831.61;223356;205;148668;-69
2023/03/16 22:22:26;;;;;;;71.50;34.20;;;;;;;3.38;55.19;99829.98;223308;183;138394;-69
2023/03/16 22:27:29;;;;;;;75.20;32.80;;;;;;;3.37;55.22;99827.38;223551;205;136890;-70
2023/03/16 22:32:32;;;;;;;69.20;34.20;;;;;;;3.35;55.34;99821.80;223436;183;148141;-70
2023/03/16 22:37:38;;;;;;;72.00;33.70;;;;;;;3.30;55.34;99823.81;219733;193;138934;-70
2023/03/16 22:42:42;;;;;;;75.30;36.00;;;;;;;3.24;55.38;99815.02;223009;182;136889;-70
2023/03/16 22:47:46;;;;;;;71.20;35.10;;;;;;;3.15;55.56;99814.48;223339;209;147204;-71
2023/03/16 22:52:52;;;;;;;70.00;34.10;;;;;;;3.08;55.72;99818.46;221271;183;138928;-71
2023/03/16 22:58:34;;;;;;;73.30;35.10;;;;;;;2.99;55.79;99816.35;223543;204;137312;-70
2023/03/16 23:03:39;;;;;;;69.70;35.30;;;;;;;2.94;56.34;99807.86;223497;184;147937;-70
2023/03/16 23:08:43;;;;;;;73.60;35.40;;;;;;;2.92;56.57;99805.63;223493;183;139501;-71
2023/03/16 23:13:47;;;;;;;73.80;36.00;;;;;;;2.91;56.59;99812.99;223484;183;137456;-70
2023/03/16 23:18:51;;;;;;;70.30;35.50;;;;;;;2.88;56.56;99810.09;223449;182;148696;-71
2023/03/16 23:23:55;;;;;;;77.00;36.80;;;;;;;2.84;56.76;99814.88;223485;182;138419;-71
2023/03/16 23:29:06;;;;;;;80.00;37.20;;;;;;;2.81;56.92;99809.51;223500;192;138091;-71
2023/03/16 23:34:15;;;;;;;73.70;38.20;;;;;;;2.75;56.90;99807.50;223459;181;148555;-71
2023/03/16 23:39:19;;;;;;;79.80;39.80;;;;;;;2.71;56.91;99807.58;223512;183;141078;-71
2023/03/16 23:44:26;;;;;;;78.10;40.40;;;;;;;2.71;57.06;99810.56;223421;182;137230;-71
2023/03/16 23:49:40;;;;;;;75.40;38.70;;;;;;;2.72;56.78;99817.56;223481;182;146779;-71
2023/03/16 23:54:43;;;;;;;81.80;40.00;;;;;;;2.67;57.02;99818.34;223420;182;138373;-71
2023/03/16 23:59:46;;;;;;;68.10;38.50;;;;;;;2.65;57.29;99827.13;223390;205;137346;-72
